createdAt,value
2023-04-26T00:00:32.013Z,97.50
2023-04-26T00:03:05.460Z,97.50
2023-04-26T00:05:36.950Z,97.40
2023-04-26T00:08:07.010Z,97.40
2023-04-26T00:10:36.380Z,97.50
2023-04-26T00:13:06.812Z,97.50
2023-04-26T00:15:38.971Z,97.30
2023-04-26T00:18:08.406Z,97.20
2023-04-26T00:20:37.783Z,97.00
2023-04-26T00:23:10.236Z,96.90
2023-04-26T00:25:40.277Z,97.00
2023-04-26T00:28:09.618Z,97.10
2023-04-26T00:30:42.266Z,96.90
2023-04-26T00:33:11.653Z,97.00
2023-04-26T00:35:41.046Z,96.90
2023-04-26T00:38:10.368Z,97.00
2023-04-26T00:40:39.648Z,97.00
2023-04-26T00:43:09.243Z,96.90
2023-04-26T00:45:38.990Z,96.70
2023-04-26T00:48:08.499Z,96.80
2023-04-26T00:50:37.919Z,96.60
2023-04-26T00:53:08.753Z,96.50
2023-04-26T00:55:38.403Z,96.30
2023-04-26T00:58:08.097Z,96.40
2023-04-26T01:00:37.577Z,96.20
2023-04-26T01:03:07.080Z,96.10
2023-04-26T01:05:37.785Z,96.00
2023-04-26T01:08:08.309Z,95.80
2023-04-26T01:10:38.314Z,95.80
2023-04-26T01:13:07.821Z,95.80
2023-04-26T01:15:38.023Z,95.70
2023-04-26T01:18:07.557Z,95.80
2023-04-26T01:20:36.899Z,95.70
2023-04-26T01:23:07.120Z,95.70
2023-04-26T01:25:38.596Z,95.50
2023-04-26T01:28:08.116Z,95.30
2023-04-26T01:30:37.776Z,95.30
2023-04-26T01:33:07.566Z,95.20
2023-04-26T01:35:38.269Z,95.00
2023-04-26T01:38:10.570Z,94.80
2023-04-26T01:40:39.776Z,94.70
2023-04-26T01:43:09.367Z,94.70
2023-04-26T01:45:39.029Z,94.60
2023-04-26T01:48:12.321Z,94.50
2023-04-26T01:50:41.856Z,94.40
2023-04-26T01:53:11.167Z,94.40
2023-04-26T01:55:44.730Z,94.30
2023-04-26T01:58:16.321Z,94.10
2023-04-26T02:00:51.120Z,94.00
2023-04-26T02:03:23.238Z,94.10
2023-04-26T02:05:53.205Z,93.70
2023-04-26T02:08:22.406Z,93.80
2023-04-26T02:10:51.626Z,93.60
2023-04-26T02:13:20.846Z,93.60
2023-04-26T02:15:52.270Z,93.50
2023-04-26T02:18:22.924Z,93.40
2023-04-26T02:20:52.364Z,93.40
2023-04-26T02:23:21.641Z,94.20
2023-04-26T02:25:51.080Z,94.00
2023-04-26T02:28:20.435Z,93.80
2023-04-26T02:30:49.620Z,93.40
2023-04-26T02:33:18.817Z,93.20
2023-04-26T02:35:47.894Z,93.20
2023-04-26T02:38:17.076Z,93.30
2023-04-26T02:40:46.521Z,92.90
2023-04-26T02:43:15.892Z,92.80
2023-04-26T02:45:45.839Z,92.70
2023-04-26T02:48:15.001Z,92.50
2023-04-26T02:50:44.206Z,92.50
2023-04-26T02:53:13.670Z,92.40
2023-04-26T02:55:42.837Z,92.40
2023-04-26T02:58:12.079Z,92.20
2023-04-26T03:00:47.190Z,92.30
2023-04-26T03:03:17.884Z,92.10
2023-04-26T03:05:47.769Z,91.80
2023-04-26T03:08:16.945Z,91.60
2023-04-26T03:10:49.302Z,91.60
2023-04-26T03:13:18.550Z,91.80
2023-04-26T03:15:48.306Z,91.50
2023-04-26T03:18:17.580Z,91.40
2023-04-26T03:20:47.975Z,91.40
2023-04-26T03:23:17.431Z,91.30
2023-04-26T03:25:47.758Z,91.20
2023-04-26T03:28:17.451Z,91.20
2023-04-26T03:30:46.883Z,91.20
2023-04-26T03:33:16.093Z,91.00
2023-04-26T03:35:46.074Z,90.80
2023-04-26T03:38:15.531Z,90.90
2023-04-26T03:40:44.748Z,90.80
2023-04-26T03:43:14.025Z,90.80
2023-04-26T03:45:43.444Z,90.70
2023-04-26T03:48:12.834Z,90.50
2023-04-26T03:50:42.265Z,90.40
2023-04-26T03:53:12.633Z,90.20
2023-04-26T03:55:41.866Z,90.10
2023-04-26T03:58:11.219Z,90.20
2023-04-26T04:00:44.723Z,90.10
2023-04-26T04:03:14.207Z,90.30
2023-04-26T04:05:44.171Z,90.40
2023-04-26T04:08:13.489Z,90.50
2023-04-26T04:10:43.791Z,90.10
2023-04-26T04:13:13.100Z,90.30
2023-04-26T04:15:42.384Z,90.30
2023-04-26T04:18:12.115Z,90.10
2023-04-26T04:20:43.150Z,90.10
2023-04-26T04:23:13.004Z,89.80
2023-04-26T04:25:42.298Z,89.70
2023-04-26T04:28:13.008Z,90.00
2023-04-26T04:30:45.171Z,90.00
2023-04-26T04:33:14.415Z,89.90
2023-04-26T04:35:44.382Z,90.00
2023-04-26T04:38:14.203Z,89.70
2023-04-26T04:40:43.462Z,89.50
2023-04-26T04:43:13.364Z,89.70
2023-04-26T04:45:42.668Z,88.70
2023-04-26T04:48:12.938Z,89.00
2023-04-26T04:50:43.101Z,89.00
2023-04-26T04:53:15.361Z,89.10
2023-04-26T04:55:44.760Z,89.10
2023-04-26T04:58:15.727Z,88.50
2023-04-26T05:00:46.723Z,87.80
2023-04-26T05:03:17.167Z,88.20
2023-04-26T05:05:46.764Z,87.60
2023-04-26T05:08:16.866Z,87.50
2023-04-26T05:10:47.040Z,87.50
2023-04-26T05:13:16.158Z,87.40
2023-04-26T05:15:45.382Z,86.70
2023-04-26T05:18:14.568Z,85.80
2023-04-26T05:20:43.787Z,85.60
2023-04-26T05:23:12.980Z,84.90
2023-04-26T05:25:42.185Z,85.10
2023-04-26T05:28:13.684Z,84.60
2023-04-26T05:30:43.100Z,84.20
2023-04-26T05:33:12.337Z,83.80
2023-04-26T05:35:41.997Z,83.60
2023-04-26T05:38:11.142Z,83.60
2023-04-26T05:40:40.312Z,83.20
2023-04-26T05:43:10.445Z,83.70
2023-04-26T05:45:40.114Z,83.40
2023-04-26T05:48:09.493Z,82.80
2023-04-26T05:50:40.059Z,82.40
2023-04-26T05:53:09.277Z,82.20
2023-04-26T05:55:39.278Z,81.90
2023-04-26T05:58:08.604Z,82.30
2023-04-26T06:00:39.107Z,81.90
2023-04-26T06:03:08.777Z,82.10
2023-04-26T06:05:39.760Z,82.40
2023-04-26T06:08:09.763Z,82.60
2023-04-26T06:10:39.266Z,82.70
2023-04-26T06:13:08.745Z,82.00
2023-04-26T06:15:38.036Z,82.50
2023-04-26T06:18:08.174Z,82.10
2023-04-26T06:20:37.479Z,82.30
2023-04-26T06:23:06.840Z,81.70
2023-04-26T06:25:38.074Z,81.80
2023-04-26T06:28:07.533Z,82.10
2023-04-26T06:30:37.001Z,82.20
2023-04-26T06:33:06.426Z,81.70
2023-04-26T06:35:40.781Z,81.70
2023-04-26T06:38:10.253Z,81.70
2023-04-26T06:40:39.542Z,81.50
2023-04-26T06:43:08.812Z,81.80
2023-04-26T06:45:38.228Z,81.10
2023-04-26T06:48:08.077Z,81.50
2023-04-26T06:50:41.070Z,81.30
2023-04-26T06:53:10.649Z,81.40
2023-04-26T06:55:40.009Z,81.70
2023-04-26T06:58:09.588Z,82.30
2023-04-26T07:00:39.159Z,82.60
2023-04-26T07:03:08.563Z,82.10
2023-04-26T07:05:38.020Z,81.60
2023-04-26T07:08:07.607Z,81.60
2023-04-26T07:10:38.088Z,81.80
2023-04-26T07:13:09.501Z,82.10
2023-04-26T07:15:39.069Z,82.20
2023-04-26T07:18:08.400Z,82.10
2023-04-26T07:20:37.752Z,81.70
2023-04-26T07:23:07.857Z,81.70
2023-04-26T07:25:37.107Z,81.10
2023-04-26T07:28:06.616Z,80.90
2023-04-26T07:30:35.921Z,80.00
2023-04-26T07:33:05.781Z,79.90
2023-04-26T07:35:36.637Z,79.50
2023-04-26T07:38:05.977Z,79.60
2023-04-26T07:40:35.212Z,79.60
2023-04-26T07:43:04.423Z,79.20
2023-04-26T07:45:34.777Z,79.20
2023-04-26T07:48:04.009Z,79.40
2023-04-26T07:50:33.481Z,79.60
2023-04-26T07:53:02.733Z,79.60
2023-04-26T07:55:32.122Z,79.30
2023-04-26T07:58:01.892Z,79.70
2023-04-26T08:00:31.476Z,79.50
2023-04-26T08:03:01.051Z,79.50
2023-04-26T08:05:31.279Z,79.70
2023-04-26T08:08:04.154Z,79.90
2023-04-26T08:10:33.351Z,79.20
2023-04-26T08:13:04.424Z,79.40
2023-04-26T08:15:33.650Z,79.30
2023-04-26T08:18:02.936Z,79.10
2023-04-26T08:20:33.904Z,79.30
2023-04-26T08:23:03.047Z,79.40
2023-04-26T08:25:32.350Z,79.90
2023-04-26T08:28:01.693Z,80.20
2023-04-26T08:30:31.007Z,80.20
2023-04-26T08:33:00.332Z,80.60
2023-04-26T08:35:29.585Z,81.10
2023-04-26T08:37:58.790Z,81.30
2023-04-26T08:40:28.228Z,81.10
2023-04-26T08:42:57.430Z,81.10
2023-04-26T08:45:27.004Z,81.00
2023-04-26T08:48:06.800Z,80.90
2023-04-26T08:50:40.043Z,81.30
2023-04-26T08:53:11.691Z,81.10
2023-04-26T08:55:43.726Z,81.00
2023-04-26T08:58:14.317Z,81.00
2023-04-26T09:01:00.865Z,81.50
2023-04-26T09:03:31.574Z,81.70
2023-04-26T09:06:07.289Z,81.60
2023-04-26T09:08:42.375Z,81.00
2023-04-26T09:11:11.613Z,80.80
2023-04-26T09:13:40.813Z,81.00
2023-04-26T09:16:10.501Z,80.80
2023-04-26T09:18:53.530Z,80.50
2023-04-26T09:21:22.860Z,80.40
2023-04-26T09:24:05.384Z,80.10
2023-04-26T09:26:34.660Z,80.50
2023-04-26T09:29:21.483Z,80.50
2023-04-26T09:31:51.944Z,81.00
2023-04-26T09:34:22.170Z,81.00
2023-04-26T09:36:59.305Z,81.20
2023-04-26T09:39:43.034Z,81.60
2023-04-26T09:42:12.931Z,82.00
2023-04-26T09:44:42.324Z,81.60
2023-04-26T09:47:13.495Z,81.20
2023-04-26T09:49:52.349Z,81.10
2023-04-26T09:52:21.957Z,81.30
2023-04-26T09:54:54.212Z,81.70
2023-04-26T09:57:24.706Z,82.40
2023-04-26T09:59:57.328Z,82.40
2023-04-26T10:02:31.006Z,82.60
2023-04-26T10:05:00.888Z,83.00
2023-04-26T10:07:32.121Z,83.10
2023-04-26T10:10:01.681Z,83.20
2023-04-26T10:12:31.202Z,83.70
2023-04-26T10:15:00.655Z,84.40
2023-04-26T10:17:30.012Z,85.00
2023-04-26T10:20:02.668Z,85.30
2023-04-26T10:22:41.226Z,85.60
2023-04-26T10:25:11.511Z,85.80
2023-04-26T10:27:47.953Z,86.30
2023-04-26T10:30:19.465Z,86.30
2023-04-26T10:32:54.720Z,86.50
2023-04-26T10:35:30.183Z,86.70
2023-04-26T10:38:02.636Z,86.80
2023-04-26T10:40:41.191Z,87.20
2023-04-26T10:43:16.262Z,87.50
2023-04-26T10:45:50.875Z,87.80
2023-04-26T10:48:24.484Z,88.00
2023-04-26T10:51:02.842Z,87.80
2023-04-26T10:53:48.269Z,87.80
2023-04-26T10:56:29.674Z,88.60
2023-04-26T11:01:47.735Z,88.40
2023-04-26T11:04:17.499Z,88.70
2023-04-26T11:07:01.533Z,89.00
2023-04-26T11:09:42.248Z,89.20
2023-04-26T11:12:17.973Z,89.20
2023-04-26T11:14:48.097Z,88.70
2023-04-26T11:17:17.317Z,88.90
2023-04-26T11:19:49.001Z,89.00
2023-04-26T11:22:22.970Z,89.20
2023-04-26T11:24:52.549Z,89.10
2023-04-26T11:27:21.720Z,89.20
2023-04-26T11:29:50.861Z,89.20
2023-04-26T11:32:21.798Z,89.30
2023-04-26T11:34:52.583Z,89.60
2023-04-26T11:37:22.900Z,89.90
2023-04-26T11:39:52.470Z,89.90
2023-04-26T11:42:27.780Z,89.80
2023-04-26T11:45:00.599Z,89.80
2023-04-26T11:47:31.876Z,89.90
2023-04-26T11:50:02.185Z,90.00
2023-04-26T11:52:32.197Z,90.10
2023-04-26T11:55:09.292Z,90.20
2023-04-26T11:57:38.789Z,90.20
2023-04-26T12:00:16.855Z,90.20
2023-04-26T12:02:50.600Z,90.20
2023-04-26T12:05:32.335Z,90.20
2023-04-26T12:08:02.606Z,90.20
2023-04-26T12:10:37.682Z,90.30
2023-04-26T12:13:07.015Z,90.30
2023-04-26T12:15:36.382Z,90.60
2023-04-26T12:18:11.511Z,90.40
2023-04-26T12:20:43.004Z,90.50
2023-04-26T12:23:15.955Z,90.60
2023-04-26T12:26:01.423Z,90.90
2023-04-26T12:28:30.802Z,90.90
2023-04-26T12:31:02.007Z,91.10
2023-04-26T12:33:32.163Z,91.20
2023-04-26T12:36:12.860Z,91.20
2023-04-26T12:38:42.499Z,91.20
2023-04-26T12:41:11.808Z,91.30
2023-04-26T12:43:41.011Z,91.30
2023-04-26T12:46:10.202Z,91.50
2023-04-26T12:48:39.554Z,91.60
2023-04-26T12:51:08.666Z,91.40
2023-04-26T12:53:37.857Z,91.40
2023-04-26T12:56:07.958Z,91.40
2023-04-26T12:58:37.015Z,91.40
2023-04-26T13:01:06.253Z,91.40
2023-04-26T13:03:35.471Z,91.40
2023-04-26T13:06:04.914Z,91.40
2023-04-26T13:08:34.066Z,91.30
2023-04-26T13:11:03.501Z,91.40
2023-04-26T13:13:42.255Z,91.30
2023-04-26T13:16:13.545Z,91.50
2023-04-26T13:18:43.244Z,91.60
2023-04-26T13:21:12.362Z,91.70
2023-04-26T13:23:41.709Z,91.80
2023-04-26T13:26:10.872Z,91.90
2023-04-26T13:28:40.037Z,92.00
2023-04-26T13:31:09.431Z,92.10
2023-04-26T13:33:38.623Z,92.20
2023-04-26T13:36:08.319Z,92.20
2023-04-26T13:38:37.870Z,92.40
2023-04-26T13:41:07.152Z,92.50
2023-04-26T13:43:42.046Z,92.50
2023-04-26T13:46:11.418Z,92.70
2023-04-26T13:48:40.696Z,92.60
2023-04-26T13:51:10.544Z,92.70
2023-04-26T13:53:40.172Z,92.80
2023-04-26T13:56:10.555Z,92.90
2023-04-26T13:58:41.864Z,93.00
2023-04-26T14:01:11.577Z,93.10
2023-04-26T14:03:45.477Z,93.30
2023-04-26T14:06:14.855Z,93.50
2023-04-26T14:08:45.330Z,93.60
2023-04-26T14:11:15.293Z,93.70
2023-04-26T14:13:46.326Z,93.80
2023-04-26T14:16:15.548Z,94.00
2023-04-26T14:18:49.144Z,94.00
2023-04-26T14:21:22.596Z,94.10
2023-04-26T14:23:52.105Z,94.30
2023-04-26T14:26:21.436Z,94.40
2023-04-26T14:28:53.494Z,94.50
2023-04-26T14:31:27.607Z,94.60
2023-04-26T14:33:57.597Z,94.70
2023-04-26T14:36:27.712Z,94.80
2023-04-26T14:38:57.043Z,94.90
2023-04-26T14:41:29.284Z,95.00
2023-04-26T14:44:01.050Z,95.00
2023-04-26T14:46:30.323Z,95.00
2023-04-26T14:48:59.540Z,95.10
2023-04-26T14:51:35.734Z,95.10
2023-04-26T14:54:05.194Z,95.20
2023-04-26T14:56:41.037Z,95.30
2023-04-26T14:59:15.943Z,95.30
2023-04-26T15:01:45.384Z,95.30
2023-04-26T15:04:20.642Z,95.40
2023-04-26T15:06:53.306Z,95.40
2023-04-26T15:09:25.356Z,95.40
2023-04-26T15:11:59.093Z,95.60
2023-04-26T15:14:28.315Z,95.60
2023-04-26T15:16:59.229Z,95.60
2023-04-26T15:19:31.430Z,95.50
2023-04-26T15:22:03.818Z,95.30
2023-04-26T15:24:43.947Z,95.30
2023-04-26T15:27:13.919Z,95.30
2023-04-26T15:29:44.973Z,95.30
2023-04-26T15:32:14.358Z,95.40
2023-04-26T15:34:46.018Z,95.40
2023-04-26T15:37:15.649Z,95.40
2023-04-26T15:39:48.249Z,95.50
2023-04-26T15:42:23.275Z,95.50
2023-04-26T15:44:54.876Z,95.50
2023-04-26T15:47:24.244Z,95.60
2023-04-26T15:49:58.700Z,95.60
2023-04-26T15:52:28.714Z,95.70
2023-04-26T15:54:58.109Z,95.60
2023-04-26T15:57:27.527Z,95.60
2023-04-26T15:59:56.993Z,95.70
2023-04-26T16:02:31.634Z,95.70
2023-04-26T16:05:04.474Z,95.80
2023-04-26T16:07:36.672Z,95.70
2023-04-26T16:10:12.517Z,95.70
2023-04-26T16:12:43.204Z,95.70
2023-04-26T16:15:12.950Z,95.80
2023-04-26T16:17:47.202Z,95.90
2023-04-26T16:20:16.522Z,95.90
2023-04-26T16:22:48.084Z,96.00
2023-04-26T16:25:18.433Z,96.00
2023-04-26T16:27:47.874Z,96.20
2023-04-26T16:30:20.094Z,95.90
2023-04-26T16:32:49.509Z,95.90
2023-04-26T16:35:19.174Z,95.90
2023-04-26T16:37:53.930Z,95.90
2023-04-26T16:40:24.553Z,95.90
2023-04-26T16:42:53.920Z,95.90
2023-04-26T16:45:23.241Z,95.90
2023-04-26T16:47:52.522Z,95.90
2023-04-26T16:50:21.981Z,95.90
2023-04-26T16:52:51.261Z,95.90
2023-04-26T16:55:20.664Z,96.00
2023-04-26T16:57:49.936Z,96.00
2023-04-26T17:00:19.972Z,96.40
2023-04-26T17:02:51.411Z,96.40
2023-04-26T17:05:21.039Z,96.40
2023-04-26T17:07:50.743Z,96.60
2023-04-26T17:10:20.267Z,96.80
2023-04-26T17:12:49.499Z,96.90
2023-04-26T17:15:18.801Z,97.00
2023-04-26T17:17:48.141Z,97.10
2023-04-26T17:20:17.886Z,97.20
2023-04-26T17:22:47.167Z,97.20
2023-04-26T17:25:16.736Z,97.20
2023-04-26T17:27:46.045Z,97.30
2023-04-26T17:30:16.980Z,97.40
2023-04-26T17:32:47.043Z,97.50
2023-04-26T17:35:16.760Z,97.50
2023-04-26T17:37:50.829Z,97.60
2023-04-26T17:40:20.652Z,97.70
2023-04-26T17:42:49.925Z,97.80
2023-04-26T17:45:19.236Z,97.80
2023-04-26T17:47:48.632Z,97.80
2023-04-26T17:50:19.569Z,98.10
2023-04-26T17:52:48.998Z,98.20
2023-04-26T17:55:18.383Z,98.30
2023-04-26T17:57:47.834Z,98.50
2023-04-26T18:00:17.741Z,98.60
2023-04-26T18:02:47.655Z,98.70
2023-04-26T18:05:17.433Z,98.80
2023-04-26T18:07:47.179Z,98.80
2023-04-26T18:10:16.511Z,99.00
2023-04-26T18:12:45.776Z,99.00
2023-04-26T18:15:15.150Z,98.90
2023-04-26T18:17:44.699Z,99.10
2023-04-26T18:20:14.641Z,99.50
2023-04-26T18:22:44.103Z,99.30
2023-04-26T18:25:13.337Z,99.20
2023-04-26T18:27:42.739Z,99.20
2023-04-26T18:30:13.985Z,99.20
2023-04-26T18:32:43.276Z,99.20
2023-04-26T18:35:12.891Z,99.20
2023-04-26T18:37:43.014Z,99.30
2023-04-26T18:40:13.118Z,99.50
2023-04-26T18:42:43.017Z,99.50
2023-04-26T18:45:13.180Z,99.50
2023-04-26T18:47:42.810Z,99.60
2023-04-26T18:50:13.401Z,99.70
2023-04-26T18:52:42.826Z,99.70
2023-04-26T18:55:12.334Z,99.60
2023-04-26T18:57:41.613Z,99.40
2023-04-26T19:00:11.945Z,99.50
2023-04-26T19:02:42.092Z,99.50
2023-04-26T19:05:16.169Z,99.60
2023-04-26T19:07:46.616Z,99.80
2023-04-26T19:10:17.444Z,99.60
2023-04-26T19:12:46.931Z,99.80
2023-04-26T19:15:16.767Z,99.90
2023-04-26T19:17:46.675Z,99.90
2023-04-26T19:20:16.163Z,99.90
2023-04-26T19:22:48.197Z,99.90
2023-04-26T19:25:21.449Z,99.90
2023-04-26T19:27:51.824Z,99.90
2023-04-26T19:30:21.270Z,99.90
2023-04-26T19:32:50.539Z,99.90
2023-04-26T19:35:19.805Z,99.90
2023-04-26T19:37:49.075Z,99.90
2023-04-26T19:40:18.479Z,99.90
2023-04-26T19:42:47.772Z,99.90
2023-04-26T19:45:21.317Z,99.90
2023-04-26T19:47:50.648Z,99.90
2023-04-26T19:50:20.142Z,99.90
2023-04-26T19:52:49.377Z,99.90
2023-04-26T19:55:18.679Z,99.90
2023-04-26T19:57:49.182Z,99.90
2023-04-26T20:00:18.689Z,99.70
2023-04-26T20:02:48.463Z,99.50
2023-04-26T20:05:17.953Z,99.40
2023-04-26T20:07:47.359Z,99.20
2023-04-26T20:10:16.858Z,99.20
2023-04-26T20:12:46.229Z,99.20
2023-04-26T20:15:16.977Z,99.20
2023-04-26T20:17:46.753Z,99.10
2023-04-26T20:20:16.391Z,99.10
2023-04-26T20:22:45.715Z,99.10
2023-04-26T20:25:15.092Z,98.90
2023-04-26T20:27:44.407Z,98.90
2023-04-26T20:30:14.923Z,98.80
2023-04-26T20:32:45.150Z,98.80
2023-04-26T20:35:14.670Z,98.80
2023-04-26T20:37:44.042Z,98.90
2023-04-26T20:40:13.738Z,98.90
2023-04-26T20:42:43.364Z,99.00
2023-04-26T20:45:13.354Z,99.20
2023-04-26T20:47:42.790Z,99.10
2023-04-26T20:50:13.220Z,99.00
2023-04-26T20:52:42.669Z,99.00
2023-04-26T20:55:12.314Z,99.00
2023-04-26T20:57:42.771Z,98.90
2023-04-26T21:00:12.635Z,98.90
2023-04-26T21:02:42.628Z,98.70
2023-04-26T21:05:12.603Z,98.40
2023-04-26T21:07:42.436Z,98.40
2023-04-26T21:10:12.219Z,98.30
2023-04-26T21:12:42.976Z,98.10
2023-04-26T21:15:12.782Z,98.00
2023-04-26T21:17:41.982Z,97.90
2023-04-26T21:20:12.061Z,97.80
2023-04-26T21:22:41.218Z,97.70
2023-04-26T21:25:11.592Z,97.80
2023-04-26T21:27:40.856Z,97.70
2023-04-26T21:30:10.951Z,97.70
2023-04-26T21:32:43.470Z,97.80
2023-04-26T21:35:12.998Z,97.90
2023-04-26T21:37:42.221Z,97.90
2023-04-26T21:40:11.957Z,97.80
2023-04-26T21:42:44.619Z,97.90
2023-04-26T21:45:18.491Z,97.90
2023-04-26T21:47:47.736Z,97.90
2023-04-26T21:50:17.070Z,98.00
2023-04-26T21:52:46.595Z,98.00
2023-04-26T21:55:15.876Z,98.00
2023-04-26T21:57:45.107Z,98.00
2023-04-26T22:00:14.753Z,98.00
2023-04-26T22:02:44.142Z,98.10
2023-04-26T22:05:13.835Z,98.20
2023-04-26T22:07:43.328Z,98.20
2023-04-26T22:10:13.011Z,98.30
2023-04-26T22:12:42.264Z,98.40
2023-04-26T22:15:12.043Z,98.60
2023-04-26T22:17:41.329Z,98.60
2023-04-26T22:20:11.567Z,98.60
2023-04-26T22:22:41.190Z,98.60
2023-04-26T22:25:11.070Z,98.60
2023-04-26T22:27:40.377Z,98.70
2023-04-26T22:30:24.050Z,98.70
2023-04-26T22:32:58.153Z,98.80
2023-04-26T22:35:29.065Z,98.80
2023-04-26T22:37:58.320Z,98.90
2023-04-26T22:40:27.530Z,98.90
2023-04-26T22:42:57.197Z,99.00
2023-04-26T22:45:26.915Z,98.90
2023-04-26T22:47:56.130Z,99.10
2023-04-26T22:50:25.653Z,99.10
2023-04-26T22:52:54.855Z,99.10
2023-04-26T22:55:24.458Z,99.30
2023-04-26T22:57:53.837Z,99.30
2023-04-26T23:00:25.721Z,99.40
2023-04-26T23:02:55.234Z,99.40
2023-04-26T23:05:25.194Z,99.40
2023-04-26T23:07:54.395Z,99.50
2023-04-26T23:10:23.709Z,99.60
2023-04-26T23:12:52.895Z,99.60
2023-04-26T23:15:22.319Z,99.70
2023-04-26T23:17:51.552Z,99.80
2023-04-26T23:20:20.848Z,99.80
2023-04-26T23:22:50.285Z,99.90
2023-04-26T23:25:20.921Z,99.90
2023-04-26T23:27:50.108Z,99.90
2023-04-26T23:30:19.665Z,99.90
2023-04-26T23:32:48.945Z,99.90
2023-04-26T23:35:18.257Z,99.90
2023-04-26T23:37:47.477Z,99.90
2023-04-26T23:40:16.786Z,99.90
2023-04-26T23:42:46.051Z,99.90
2023-04-26T23:45:15.265Z,99.90
2023-04-26T23:47:44.600Z,99.90
2023-04-26T23:50:13.871Z,99.90
2023-04-26T23:52:43.226Z,99.90
2023-04-26T23:55:12.693Z,99.90
2023-04-26T23:57:42.053Z,99.90
